Pagrindinis puslapis
METAR-TAF:

METAR-TAF

Oro uostai :

Bengalūras, Indija

platuma: 13-11-56N, ilguma: 077-42-20E, Aukštis: 915 m

Dabartinis oras

Ataskaita buvo paskelbta 16 minutes, ne 14:30 UTC
Vėjas 6 kt iš Vakarų
Temperatūra 23°C
Drėgmė 100%
Slėgis 1012 hPa
Matomumas: 6000 m
Išsisklaidę debesys ne aukštis 1200 ft
Išsisklaidę debesys ne aukštis 8000 ft

METAR: VOBL 171430Z 28006KT 6000 SCT012 SCT080 23/23 Q1012 NOSIG

Laikas: 20:16 (14:46 UTC)

Prognozė

Ataskaita buvo paskelbta 46 minutes, ne 14:00 UTC
Prognozė galioja nuo 17 metu 15 UTC su 17 metu 24 UTC
Vėjas 10 kt iš Vakarų
Matomumas: 6000 m
Išsisklaidę debesys ne aukštis 1200 ft
Išsisklaidę debesys ne aukštis 8000 ft
Laikinai
nuo 17 metu 15 UTC su 17 metu 18 UTC
Matomumas: 4000 m
Išsisklaidę debesys ne aukštis 800 ft
Išsisklaidę debesys ne aukštis 1200 ft
Su prošvaistėmis ne aukštis 8000 ft
lietus, dulksna

TAF: VOBL 171400Z 1715/1724 27010KT 6000 SCT012 SCT080 TEMPO 1715/1718 4000 RA DZ SCT008 SCT012 BKN080

Orai ataskaitas ir orų prognozės (METAR, TAF).

turimą stotys yra geltonos ir raudonos taškus žemėlapyje.

Perkelti pele per norėdami pamatyti stoties vardą.

Tada spustelėkite, norėdami matyti oro stebėjimo ir prognozės.

Norėdami pakeisti žemėlapį: spustelėkite ant žalios mygtukų su juodo kryžiaus žemyn,; žalią mygtuką su brūkšneliu, jei norite nutolinti; arba žalių rodyklių gretimoms žemėlapius.


METAR-TAF: